Time;durP1;ratioP1;P1;durP2;ratioP2;P2;SDS_P1;SDS_P2;PMS_P1;PMS_P2;Temp;Humidity;BMP_temperature;BMP_pressure;BME280_temperature;BME280_humidity;BME280_pressure;Samples;Min_cycle;Max_cycle;Signal;HPM_P1;HPM_P2
2023/07/30 00:00:50;;;;;;;9.13;3.63;;;15.60;99.90;;;;;;5052122;28;20222;-60
2023/07/30 00:03:18;;;;;;;8.43;3.50;;;15.60;99.90;;;;;;5052246;28;20317;-60
2023/07/30 00:05:53;;;;;;;14.37;4.03;;;15.50;99.90;;;;;;5052519;28;20308;-60
2023/07/30 00:08:22;;;;;;;10.00;3.80;;;15.50;99.90;;;;;;5051347;28;20180;-60
2023/07/30 00:10:51;;;;;;;7.60;3.03;;;15.50;99.90;;;;;;5052695;28;20187;-60
2023/07/30 00:13:19;;;;;;;7.23;2.93;;;15.50;99.90;;;;;;5058759;28;20230;-60
2023/07/30 00:15:49;;;;;;;12.20;3.50;;;15.50;99.90;;;;;;5042732;28;20222;-60
2023/07/30 00:18:18;;;;;;;8.67;3.20;;;15.40;99.90;;;;;;5051293;28;20221;-60
2023/07/30 00:20:46;;;;;;;10.73;3.30;;;15.50;99.90;;;;;;5049497;28;20225;-60
2023/07/30 00:23:15;;;;;;;13.60;4.20;;;15.40;99.90;;;;;;5050382;28;20202;-60
2023/07/30 00:25:43;;;;;;;12.43;3.07;;;15.40;99.90;;;;;;5052501;28;20216;-60
2023/07/30 00:28:11;;;;;;;11.67;3.47;;;15.50;99.90;;;;;;5051470;28;20230;-60
2023/07/30 00:30:40;;;;;;;8.37;3.37;;;15.50;99.90;;;;;;5050572;28;20584;-60
2023/07/30 00:33:10;;;;;;;13.20;3.10;;;15.40;99.90;;;;;;5065042;28;20225;-60
2023/07/30 00:35:38;;;;;;;12.63;3.37;;;15.40;99.90;;;;;;5052222;28;20236;-60
2023/07/30 00:38:07;;;;;;;9.30;3.00;;;15.40;99.90;;;;;;5052154;28;20194;-60
2023/07/30 00:40:41;;;;;;;8.30;3.30;;;15.40;99.90;;;;;;5046888;28;20608;-60
2023/07/30 00:43:10;;;;;;;9.77;3.17;;;15.40;99.90;;;;;;5048074;28;20227;-60
2023/07/30 00:45:43;;;;;;;10.37;3.13;;;15.40;99.90;;;;;;5051536;28;20217;-60
2023/07/30 00:48:15;;;;;;;10.03;2.70;;;15.40;99.90;;;;;;5048431;28;20228;-60
2023/07/30 00:50:44;;;;;;;10.93;3.43;;;15.40;99.90;;;;;;5049759;28;20314;-60
2023/07/30 00:53:15;;;;;;;12.17;3.63;;;15.40;99.90;;;;;;5051163;28;20202;-60
2023/07/30 00:55:44;;;;;;;14.07;3.17;;;15.40;99.90;;;;;;5055118;28;20194;-60
2023/07/30 00:58:13;;;;;;;10.37;3.70;;;15.40;99.90;;;;;;5051237;28;20625;-60
2023/07/30 01:00:42;;;;;;;10.57;3.20;;;15.30;99.90;;;;;;5048327;28;20219;-60
2023/07/30 01:03:11;;;;;;;8.47;3.17;;;15.30;99.90;;;;;;5051968;28;20218;-60
2023/07/30 01:05:41;;;;;;;9.27;3.20;;;15.30;99.90;;;;;;5051972;28;20223;-60
2023/07/30 01:08:09;;;;;;;12.73;3.27;;;15.40;99.90;;;;;;5051787;28;20206;-59
2023/07/30 01:10:42;;;;;;;8.50;2.90;;;15.50;99.90;;;;;;5051375;28;20260;-60
2023/07/30 01:13:12;;;;;;;12.67;3.23;;;15.50;99.90;;;;;;5050159;28;20217;-60
2023/07/30 01:15:41;;;;;;;18.17;3.03;;;15.60;99.90;;;;;;5033610;28;20569;-60
2023/07/30 01:18:10;;;;;;;8.67;2.87;;;15.60;99.90;;;;;;5043265;28;20229;-60
2023/07/30 01:20:40;;;;;;;14.13;3.07;;;15.60;99.90;;;;;;5053802;28;20219;-60
2023/07/30 01:23:10;;;;;;;22.43;3.47;;;15.60;99.90;;;;;;5055842;28;20231;-60
2023/07/30 01:25:39;;;;;;;16.70;3.17;;;15.60;99.90;;;;;;5047140;28;20217;-60
2023/07/30 01:28:13;;;;;;;13.50;3.03;;;15.60;99.90;;;;;;5053898;28;20704;-60
2023/07/30 01:30:43;;;;;;;13.70;3.30;;;15.60;99.90;;;;;;5052750;28;20322;-60
2023/07/30 01:33:12;;;;;;;9.67;3.13;;;15.60;99.90;;;;;;5059221;28;20333;-60
2023/07/30 01:35:43;;;;;;;10.70;3.63;;;15.60;99.90;;;;;;5052926;28;20246;-60
2023/07/30 01:38:14;;;;;;;11.27;3.40;;;15.50;99.90;;;;;;5036752;28;20286;-60
2023/07/30 01:40:43;;;;;;;12.90;3.20;;;15.50;99.90;;;;;;5052375;28;20634;-60
2023/07/30 01:43:11;;;;;;;15.27;2.77;;;15.40;99.90;;;;;;5045939;28;20373;-60
2023/07/30 01:45:40;;;;;;;13.20;3.20;;;15.50;99.90;;;;;;5053979;28;20209;-60
2023/07/30 01:48:10;;;;;;;11.90;3.17;;;15.40;99.90;;;;;;5058833;28;20232;-60
2023/07/30 01:50:38;;;;;;;14.60;3.57;;;15.40;99.90;;;;;;5053556;28;20305;-60
2023/07/30 01:53:06;;;;;;;11.63;3.37;;;15.40;99.90;;;;;;5055161;28;20205;-60
2023/07/30 01:55:36;;;;;;;9.00;3.00;;;15.40;99.90;;;;;;5051627;28;20213;-60
2023/07/30 01:58:04;;;;;;;19.00;4.00;;;15.40;99.90;;;;;;5049187;28;20221;-60
2023/07/30 02:00:36;;;;;;;16.47;3.40;;;15.40;99.90;;;;;;5051511;28;20629;-60
2023/07/30 02:03:04;;;;;;;17.73;3.23;;;15.40;99.90;;;;;;5050926;28;20251;-60
2023/07/30 02:05:33;;;;;;;12.30;3.10;;;15.30;99.90;;;;;;5041701;28;20222;-60
2023/07/30 02:08:01;;;;;;;8.13;2.70;;;15.30;99.90;;;;;;5054310;28;20566;-60
2023/07/30 02:10:30;;;;;;;11.13;2.70;;;15.30;99.90;;;;;;5036910;28;20313;-60
2023/07/30 02:12:59;;;;;;;12.30;2.77;;;15.30;99.90;;;;;;5054350;28;20226;-60
2023/07/30 02:15:29;;;;;;;11.93;3.37;;;15.30;99.90;;;;;;5054291;28;20212;-60
2023/07/30 02:17:57;;;;;;;13.70;3.23;;;15.30;99.90;;;;;;5042874;28;20750;-60
2023/07/30 02:20:25;;;;;;;16.30;3.83;;;15.30;99.90;;;;;;5054156;28;20194;-60
2023/07/30 02:22:54;;;;;;;14.77;2.73;;;15.30;99.90;;;;;;5053254;28;20599;-60
2023/07/30 02:25:22;;;;;;;12.97;2.93;;;15.40;99.90;;;;;;5053767;28;20232;-60
2023/07/30 02:27:50;;;;;;;13.40;3.33;;;15.40;99.90;;;;;;5053926;28;20708;-60
2023/07/30 02:30:20;;;;;;;15.57;3.47;;;15.30;99.90;;;;;;5053579;28;20618;-60
2023/07/30 02:32:49;;;;;;;14.97;3.17;;;15.30;99.90;;;;;;5053714;28;20228;-60
2023/07/30 02:35:17;;;;;;;12.20;3.20;;;15.30;99.90;;;;;;5053605;28;20303;-60
2023/07/30 02:37:45;;;;;;;20.00;3.33;;;15.30;99.90;;;;;;5052141;28;20209;-60
2023/07/30 02:40:14;;;;;;;19.63;3.47;;;15.20;99.90;;;;;;5053106;28;20225;-60
2023/07/30 02:42:42;;;;;;;12.13;3.00;;;15.20;99.90;;;;;;5054198;28;20225;-60
2023/07/30 02:45:11;;;;;;;11.03;3.00;;;15.20;99.90;;;;;;5071660;28;20647;-60
2023/07/30 02:47:40;;;;;;;16.23;3.17;;;15.20;99.90;;;;;;5071062;28;20270;-60
2023/07/30 02:50:10;;;;;;;11.70;3.50;;;15.10;99.90;;;;;;5067421;28;20210;-60
2023/07/30 02:52:38;;;;;;;11.87;2.70;;;15.10;99.90;;;;;;5054732;28;20226;-60
2023/07/30 02:55:07;;;;;;;14.27;3.40;;;15.10;99.90;;;;;;5065687;28;20223;-60
2023/07/30 02:57:35;;;;;;;14.83;3.70;;;15.10;99.90;;;;;;5071778;28;20308;-60
2023/07/30 03:00:05;;;;;;;14.20;3.50;;;15.10;99.90;;;;;;5051509;28;20227;-60
2023/07/30 03:02:33;;;;;;;15.17;3.27;;;15.10;99.90;;;;;;5067609;28;20223;-60
2023/07/30 03:05:03;;;;;;;16.43;3.30;;;15.10;99.90;;;;;;5067149;28;20189;-60
2023/07/30 03:07:31;;;;;;;14.47;3.30;;;15.10;99.90;;;;;;5069317;28;20217;-60
2023/07/30 03:10:00;;;;;;;15.37;3.40;;;15.10;99.90;;;;;;5069173;28;20225;-60
2023/07/30 03:12:28;;;;;;;12.50;3.30;;;15.10;99.90;;;;;;5061121;28;20234;-60
2023/07/30 03:14:56;;;;;;;15.90;3.20;;;15.10;99.90;;;;;;5070417;28;20229;-60
2023/07/30 03:17:25;;;;;;;10.13;3.23;;;15.10;99.90;;;;;;5062349;28;20225;-60
2023/07/30 03:19:53;;;;;;;14.50;3.17;;;15.10;99.90;;;;;;5051749;28;20212;-60
2023/07/30 03:22:22;;;;;;;10.00;3.13;;;15.00;99.90;;;;;;5071251;28;20304;-60
2023/07/30 03:24:51;;;;;;;11.57;3.17;;;15.00;99.90;;;;;;5072299;28;20228;-60
2023/07/30 03:27:19;;;;;;;19.83;4.13;;;15.00;99.90;;;;;;5070527;28;20652;-60
2023/07/30 03:29:48;;;;;;;17.47;3.23;;;15.00;99.90;;;;;;5066723;28;20226;-60
2023/07/30 03:32:16;;;;;;;13.50;2.90;;;14.90;99.90;;;;;;5072112;28;20207;-60
2023/07/30 03:34:45;;;;;;;19.57;4.17;;;15.00;99.90;;;;;;5066699;28;20205;-60
2023/07/30 03:37:53;;;;;;;16.13;3.43;;;15.00;99.90;;;;;;5055148;28;20283;-60
2023/07/30 03:40:22;;;;;;;15.33;3.27;;;14.90;99.90;;;;;;5071383;28;20217;-60
2023/07/30 03:42:51;;;;;;;22.17;3.87;;;14.90;99.90;;;;;;5065391;28;20231;-60
2023/07/30 03:45:19;;;;;;;20.53;3.57;;;14.90;99.90;;;;;;5049785;28;20264;-60
2023/07/30 03:47:48;;;;;;;16.77;3.73;;;14.90;99.90;;;;;;5052864;28;20227;-60
2023/07/30 03:50:16;;;;;;;16.57;3.23;;;14.90;99.90;;;;;;5054954;28;20199;-60
2023/07/30 03:52:44;;;;;;;16.63;3.93;;;14.80;99.90;;;;;;5052129;28;20646;-60
2023/07/30 03:55:13;;;;;;;19.87;3.33;;;14.90;99.90;;;;;;5051762;28;20226;-60
2023/07/30 03:57:43;;;;;;;17.03;2.90;;;14.90;99.90;;;;;;5052250;28;20243;-60
2023/07/30 04:00:11;;;;;;;20.50;3.87;;;14.80;99.90;;;;;;5061881;28;20249;-61
2023/07/30 04:02:40;;;;;;;16.37;3.70;;;14.80;99.90;;;;;;5052090;28;20304;-60
2023/07/30 04:05:08;;;;;;;20.63;3.83;;;14.80;99.90;;;;;;5052093;28;20549;-60
2023/07/30 04:07:37;;;;;;;15.63;4.00;;;14.80;99.90;;;;;;5058146;28;20221;-60
2023/07/30 04:10:09;;;;;;;19.67;3.80;;;14.80;99.90;;;;;;5051714;28;20218;-60
2023/07/30 04:12:37;;;;;;;10.50;3.33;;;14.80;99.90;;;;;;5055104;28;20552;-60
2023/07/30 04:15:08;;;;;;;22.53;3.83;;;14.80;99.90;;;;;;5058528;28;20233;-60
2023/07/30 04:17:37;;;;;;;16.80;3.43;;;14.80;99.90;;;;;;5052459;28;20253;-60
2023/07/30 04:20:07;;;;;;;14.10;3.40;;;14.80;99.90;;;;;;5051651;28;20253;-60
2023/07/30 04:22:36;;;;;;;13.83;3.87;;;14.80;99.90;;;;;;5054507;28;20247;-60
2023/07/30 04:25:05;;;;;;;17.43;4.37;;;14.90;99.90;;;;;;5047105;28;20225;-60
2023/07/30 04:27:33;;;;;;;16.47;4.23;;;14.90;99.90;;;;;;5039983;28;20234;-60
2023/07/30 04:30:02;;;;;;;20.63;4.03;;;14.90;99.90;;;;;;5057277;28;20614;-60
2023/07/30 04:32:32;;;;;;;19.20;4.30;;;14.90;99.90;;;;;;5058061;28;20256;-60
2023/07/30 04:35:00;;;;;;;12.40;3.90;;;15.00;99.90;;;;;;5034132;28;20296;-60
2023/07/30 04:37:29;;;;;;;17.23;3.50;;;14.90;99.90;;;;;;5051312;28;20312;-60
2023/07/30 04:39:58;;;;;;;16.67;4.17;;;14.90;99.90;;;;;;5033827;28;20692;-60
2023/07/30 04:42:26;;;;;;;18.73;4.00;;;15.00;99.90;;;;;;5045424;28;20320;-60
2023/07/30 04:44:54;;;;;;;19.70;3.87;;;15.00;99.90;;;;;;5063826;28;20766;-60
2023/07/30 04:47:23;;;;;;;15.17;3.60;;;15.00;99.90;;;;;;5061119;28;20279;-60
2023/07/30 04:49:52;;;;;;;17.47;3.43;;;15.00;99.90;;;;;;5072640;28;20217;-60
2023/07/30 04:52:21;;;;;;;17.43;3.53;;;15.10;99.90;;;;;;5071802;28;20327;-60
2023/07/30 04:54:49;;;;;;;20.43;3.27;;;15.10;99.90;;;;;;5075079;28;20594;-60
2023/07/30 04:57:17;;;;;;;17.80;3.30;;;15.20;99.90;;;;;;5066704;28;20292;-60
2023/07/30 04:59:47;;;;;;;16.37;3.33;;;15.20;99.90;;;;;;5073528;28;20225;-60
2023/07/30 05:02:16;;;;;;;21.07;3.70;;;15.20;99.90;;;;;;5074244;28;20180;-60
2023/07/30 05:04:44;;;;;;;29.77;3.37;;;15.20;99.90;;;;;;5075738;28;20507;-60
2023/07/30 05:07:14;;;;;;;11.37;3.27;;;15.20;99.90;;;;;;5075700;28;20222;-60
2023/07/30 05:09:42;;;;;;;22.90;4.13;;;15.30;99.90;;;;;;5074216;28;20303;-60
2023/07/30 05:12:10;;;;;;;13.93;3.63;;;15.30;99.90;;;;;;5074834;28;20232;-61
2023/07/30 05:14:43;;;;;;;17.70;3.53;;;15.40;99.90;;;;;;5054628;28;20220;-60
2023/07/30 05:17:12;;;;;;;18.77;3.77;;;15.40;99.90;;;;;;5074249;28;20198;-60
2023/07/30 05:19:40;;;;;;;16.23;3.53;;;15.40;99.90;;;;;;5077115;28;20211;-60
2023/07/30 05:22:09;;;;;;;15.90;3.83;;;15.50;99.90;;;;;;5074571;28;20220;-60
2023/07/30 05:24:39;;;;;;;18.07;3.40;;;15.50;99.90;;;;;;5073497;28;20227;-60
2023/07/30 05:27:07;;;;;;;20.03;3.93;;;15.60;99.90;;;;;;5071833;28;20229;-60
2023/07/30 05:29:35;;;;;;;13.07;3.63;;;15.60;99.90;;;;;;5075304;28;20285;-60
2023/07/30 05:32:04;;;;;;;29.43;4.33;;;15.70;99.90;;;;;;5069431;28;20238;-60
2023/07/30 05:34:33;;;;;;;21.80;3.87;;;15.90;99.90;;;;;;5075053;28;20225;-60
2023/07/30 05:37:01;;;;;;;19.43;3.30;;;15.80;99.90;;;;;;5073076;28;20680;-60
2023/07/30 05:39:30;;;;;;;17.47;3.73;;;15.80;99.90;;;;;;5074849;28;20214;-61
2023/07/30 05:41:59;;;;;;;19.27;3.83;;;15.80;99.90;;;;;;5070597;28;20572;-60
2023/07/30 05:44:28;;;;;;;17.57;3.90;;;15.90;99.90;;;;;;5043918;28;20510;-60
2023/07/30 05:46:56;;;;;;;15.63;3.70;;;16.00;99.90;;;;;;5056893;28;20198;-60
2023/07/30 05:49:25;;;;;;;13.33;3.53;;;16.00;99.90;;;;;;5046839;28;20215;-60
2023/07/30 05:51:54;;;;;;;16.90;3.47;;;16.00;99.90;;;;;;5056663;28;20593;-60
2023/07/30 05:54:22;;;;;;;25.50;4.30;;;16.00;99.90;;;;;;5054308;28;20246;-60
2023/07/30 05:56:50;;;;;;;15.77;3.90;;;16.10;99.90;;;;;;5054042;28;20222;-60
2023/07/30 05:59:21;;;;;;;15.80;3.73;;;16.10;99.90;;;;;;5053685;28;20206;-60
2023/07/30 06:01:50;;;;;;;17.73;3.57;;;16.10;99.90;;;;;;5054773;28;20236;-61
2023/07/30 06:04:19;;;;;;;17.07;3.50;;;16.10;99.90;;;;;;5044809;28;20318;-60
2023/07/30 06:06:47;;;;;;;25.93;3.90;;;16.10;99.90;;;;;;5054167;28;20222;-60
2023/07/30 06:09:16;;;;;;;17.83;3.30;;;16.10;99.90;;;;;;5054224;28;20248;-60
2023/07/30 06:11:44;;;;;;;17.27;3.67;;;16.20;99.90;;;;;;5055069;28;20230;-60
2023/07/30 06:14:12;;;;;;;15.87;3.30;;;16.20;99.90;;;;;;5054431;28;20194;-60
2023/07/30 06:16:43;;;;;;;22.60;4.03;;;16.30;99.90;;;;;;5052907;28;20543;-61
2023/07/30 06:19:14;;;;;;;17.80;3.60;;;16.30;99.90;;;;;;5053999;28;20249;-60
2023/07/30 06:21:42;;;;;;;15.83;3.63;;;16.40;99.90;;;;;;5053421;28;20230;-60
2023/07/30 06:24:11;;;;;;;13.70;3.50;;;16.60;99.90;;;;;;5054379;28;20742;-60
2023/07/30 06:26:39;;;;;;;16.20;3.90;;;16.70;99.90;;;;;;5053123;28;20238;-60
2023/07/30 06:29:08;;;;;;;12.37;3.57;;;16.80;99.90;;;;;;5055915;28;20634;-61
2023/07/30 06:31:36;;;;;;;18.47;3.90;;;16.90;99.90;;;;;;5055537;28;20657;-60
2023/07/30 06:34:06;;;;;;;17.87;3.70;;;16.90;99.90;;;;;;5063387;28;20228;-60
2023/07/30 06:36:35;;;;;;;19.57;3.87;;;17.00;99.90;;;;;;5049393;28;20223;-66
2023/07/30 06:39:04;;;;;;;18.70;3.70;;;17.00;99.90;;;;;;5048662;28;20228;-66
2023/07/30 06:41:32;;;;;;;23.23;4.83;;;17.10;99.90;;;;;;5048057;28;20224;-66
2023/07/30 06:44:01;;;;;;;19.47;4.10;;;17.10;99.90;;;;;;5071444;28;20220;-66
2023/07/30 06:46:29;;;;;;;14.77;3.30;;;17.30;99.90;;;;;;5070377;28;20627;-66
2023/07/30 06:48:57;;;;;;;13.47;3.30;;;17.60;99.90;;;;;;5065484;28;20224;-66
2023/07/30 06:51:29;;;;;;;14.77;3.70;;;18.10;99.90;;;;;;5057439;28;20745;-66
2023/07/30 06:53:57;;;;;;;16.17;3.23;;;18.40;96.10;;;;;;5075891;28;20219;-66
2023/07/30 06:56:26;;;;;;;17.10;3.50;;;18.50;95.10;;;;;;5066245;28;20271;-66
2023/07/30 06:58:54;;;;;;;12.43;3.50;;;18.50;92.00;;;;;;5072537;28;20199;-67
2023/07/30 07:01:22;;;;;;;17.13;3.50;;;18.70;95.80;;;;;;5068687;28;20254;-66
2023/07/30 07:03:51;;;;;;;15.07;3.23;;;18.90;80.00;;;;;;5072041;28;20211;-67
2023/07/30 07:06:21;;;;;;;15.00;3.50;;;18.90;81.50;;;;;;5055562;28;20235;-66
2023/07/30 07:08:51;;;;;;;19.77;3.73;;;18.80;82.30;;;;;;5073405;28;20713;-66
2023/07/30 07:11:19;;;;;;;18.03;3.53;;;18.60;85.20;;;;;;5068896;28;20604;-66
2023/07/30 07:13:48;;;;;;;14.00;3.37;;;18.50;84.30;;;;;;5071791;28;20204;-67
2023/07/30 07:16:16;;;;;;;16.33;3.83;;;18.30;89.40;;;;;;5067886;28;20311;-66
2023/07/30 07:18:45;;;;;;;11.60;3.60;;;18.10;93.00;;;;;;5064372;28;20235;-66
2023/07/30 07:21:13;;;;;;;16.23;4.17;;;18.10;96.20;;;;;;5064640;28;20216;-66
2023/07/30 07:23:42;;;;;;;14.77;2.93;;;18.20;97.70;;;;;;5069647;28;20253;-66
2023/07/30 07:26:12;;;;;;;19.67;3.93;;;18.30;91.20;;;;;;5061612;28;20903;-66
2023/07/30 07:28:40;;;;;;;17.07;3.03;;;18.20;92.40;;;;;;5076631;28;20203;-66
2023/07/30 07:31:11;;;;;;;15.23;2.77;;;18.20;94.30;;;;;;5069761;28;20223;-66
2023/07/30 07:33:40;;;;;;;13.73;3.10;;;18.30;95.90;;;;;;5071142;28;20224;-66
2023/07/30 07:36:09;;;;;;;11.90;3.00;;;18.30;91.10;;;;;;5069587;28;20230;-67
2023/07/30 07:38:37;;;;;;;17.93;3.50;;;18.30;91.30;;;;;;5070623;28;20578;-66
2023/07/30 07:41:06;;;;;;;13.73;3.10;;;18.40;90.80;;;;;;5068607;28;20192;-66
2023/07/30 07:43:35;;;;;;;15.43;3.33;;;18.40;75.70;;;;;;5054725;28;20791;-66
2023/07/30 07:46:09;;;;;;;13.87;2.93;;;18.50;90.20;;;;;;5049837;28;20586;-66
2023/07/30 07:48:38;;;;;;;13.83;3.10;;;18.60;90.70;;;;;;5050712;28;20348;-66
2023/07/30 07:51:06;;;;;;;10.33;2.90;;;18.90;80.80;;;;;;5049349;28;22046;-67
2023/07/30 07:53:37;;;;;;;10.87;2.73;;;19.20;61.20;;;;;;5050976;28;20228;-67
2023/07/30 07:56:06;;;;;;;14.30;3.37;;;19.20;51.80;;;;;;5052764;28;20189;-66
2023/07/30 07:58:36;;;;;;;16.20;2.90;;;19.30;58.50;;;;;;5050954;28;20209;-67
2023/07/30 08:01:05;;;;;;;15.23;3.07;;;19.40;55.30;;;;;;5046461;28;20224;-67
2023/07/30 08:03:33;;;;;;;10.47;2.93;;;19.40;47.10;;;;;;5052309;28;20216;-67
2023/07/30 08:06:01;;;;;;;9.47;3.07;;;19.70;46.00;;;;;;5050765;28;20238;-67
2023/07/30 08:08:30;;;;;;;10.03;3.43;;;20.00;15.20;;;;;;5051426;28;20236;-67
2023/07/30 08:10:58;;;;;;;10.83;2.93;;;20.20;1.00;;;;;;5043756;28;20189;-67
2023/07/30 08:13:27;;;;;;;10.30;2.80;;;20.40;1.00;;;;;;5048615;28;20220;-66
2023/07/30 08:15:56;;;;;;;7.70;2.57;;;20.60;1.00;;;;;;5049144;28;20307;-67
2023/07/30 08:18:25;;;;;;;8.37;3.03;;;20.80;1.00;;;;;;5049990;28;20220;-66
2023/07/30 08:20:54;;;;;;;10.23;2.47;;;20.50;1.00;;;;;;5052779;28;20646;-66
2023/07/30 08:23:22;;;;;;;13.40;2.90;;;20.40;1.00;;;;;;5047431;28;20205;-66
2023/07/30 08:25:50;;;;;;;7.40;2.70;;;19.90;1.00;;;;;;5049128;28;20205;-66
2023/07/30 08:28:20;;;;;;;7.83;2.23;;;19.80;1.00;;;;;;5048026;28;20224;-67
2023/07/30 08:30:48;;;;;;;6.60;2.23;;;19.50;1.00;;;;;;5048836;28;20231;-66
2023/07/30 08:33:18;;;;;;;11.93;2.70;;;19.20;1.00;;;;;;5043050;28;20217;-68
2023/07/30 08:35:46;;;;;;;10.57;2.53;;;18.60;65.50;;;;;;5051220;28;20220;-68
2023/07/30 08:38:14;;;;;;;5.97;2.43;;;18.00;86.90;;;;;;5050038;28;20189;-67
2023/07/30 08:40:43;;;;;;;8.77;2.27;;;17.60;99.90;;;;;;5050216;28;20789;-68
2023/07/30 08:43:12;;;;;;;9.03;2.40;;;17.20;99.90;;;;;;5048179;28;20346;-68
2023/07/30 08:45:40;;;;;;;7.37;2.20;;;17.00;99.90;;;;;;5048960;28;20736;-68
2023/07/30 08:48:11;;;;;;;4.10;2.03;;;16.90;99.90;;;;;;5049293;28;20219;-68
2023/07/30 08:50:42;;;;;;;7.10;1.97;;;16.70;99.90;;;;;;5047748;28;20220;-68
2023/07/30 08:53:11;;;;;;;7.40;2.30;;;16.80;99.90;;;;;;5044903;28;20196;-67
2023/07/30 08:55:41;;;;;;;4.03;1.90;;;16.90;99.90;;;;;;5048929;28;20288;-67
2023/07/30 08:58:14;;;;;;;7.77;2.30;;;17.00;99.90;;;;;;5049335;28;20235;-67
2023/07/30 09:00:44;;;;;;;7.53;2.13;;;17.10;99.90;;;;;;5048211;28;20321;-68
2023/07/30 09:03:15;;;;;;;7.83;2.23;;;17.30;99.90;;;;;;5049284;28;20228;-67
2023/07/30 09:05:45;;;;;;;9.93;1.97;;;17.40;99.90;;;;;;5043242;28;20217;-67
2023/07/30 09:08:15;;;;;;;9.53;2.47;;;17.40;99.90;;;;;;5049875;28;20651;-67
2023/07/30 09:10:43;;;;;;;11.33;2.30;;;17.50;99.90;;;;;;5050106;28;20193;-67
2023/07/30 09:13:12;;;;;;;10.23;2.57;;;17.90;99.90;;;;;;5050387;28;20252;-66
2023/07/30 09:15:40;;;;;;;11.50;2.50;;;18.50;99.90;;;;;;5046874;28;20238;-67
2023/07/30 09:18:08;;;;;;;11.13;3.07;;;18.90;74.40;;;;;;5047912;28;20263;-66
2023/07/30 09:20:41;;;;;;;11.50;2.67;;;19.00;43.50;;;;;;5036277;28;20230;-66
2023/07/30 09:23:11;;;;;;;10.17;2.53;;;19.10;25.40;;;;;;5047697;28;20726;-60
2023/07/30 09:25:40;;;;;;;5.53;2.10;;;19.60;75.20;;;;;;5047457;28;20189;-66
2023/07/30 09:28:10;;;;;;;7.43;1.97;;;20.20;1.00;;;;;;5046379;28;20220;-66
2023/07/30 09:30:39;;;;;;;7.67;2.03;;;21.20;99.90;;;;;;5041900;28;20219;-66
2023/07/30 09:33:07;;;;;;;5.33;2.10;;;22.30;99.90;;;;;;5047979;28;20308;-65
2023/07/30 09:35:36;;;;;;;7.60;2.10;;;22.40;99.90;;;;;;5044328;28;20232;-66
2023/07/30 09:38:05;;;;;;;6.33;1.87;;;23.00;99.90;;;;;;5041159;28;20201;-66
2023/07/30 09:40:36;;;;;;;8.13;2.30;;;23.40;99.90;;;;;;5048987;28;20222;-66
2023/07/30 09:43:06;;;;;;;10.38;2.20;;;23.50;99.90;;;;;;5032797;28;20323;-66
2023/07/30 09:45:35;;;;;;;5.28;1.90;;;;;;;;;;5053083;28;20264;-66
2023/07/30 09:48:05;;;;;;;6.13;1.98;;;23.60;69.50;;;;;;5051517;28;20229;-66
2023/07/30 09:50:35;;;;;;;4.60;2.20;;;23.20;1.00;;;;;;5052905;28;20307;-66
2023/07/30 09:53:04;;;;;;;6.03;2.03;;;23.00;38.80;;;;;;5032871;28;20216;-65
2023/07/30 09:55:34;;;;;;;5.57;1.77;;;23.60;1.00;;;;;;5020036;28;20217;-65
2023/07/30 09:58:02;;;;;;;5.70;1.80;;;24.10;99.90;;;;;;5023663;28;20689;-66
2023/07/30 10:00:31;;;;;;;6.68;1.95;;;24.60;99.90;;;;;;5031709;28;20754;-66
2023/07/30 10:03:02;;;;;;;5.90;2.03;;;24.70;99.90;;;;;;5029588;28;20240;-66
2023/07/30 10:05:36;;;;;;;6.85;2.30;;;25.00;1.00;;;;;;5031515;28;20228;-66
2023/07/30 10:08:10;;;;;;;5.95;2.08;;;25.20;1.00;;;;;;5031252;28;20296;-66
2023/07/30 10:10:40;;;;;;;7.18;2.28;;;24.60;1.00;;;;;;5023050;28;20803;-66
2023/07/30 10:13:11;;;;;;;8.33;2.30;;;23.60;1.00;;;;;;5027922;28;20222;-65
2023/07/30 10:15:40;;;;;;;5.23;2.00;;;23.00;1.00;;;;;;5030619;28;20599;-66
2023/07/30 10:18:09;;;;;;;5.57;2.17;;;22.40;1.00;;;;;;5030565;28;20255;-65
2023/07/30 10:20:38;;;;;;;7.90;2.20;;;21.90;99.90;;;;;;5030467;28;20704;-65
2023/07/30 10:23:06;;;;;;;8.23;1.87;;;21.50;1.00;;;;;;5031449;28;20204;-66
2023/07/30 10:25:46;;;;;;;5.53;2.10;;;21.20;1.00;;;;;;5028706;28;20215;-66
2023/07/30 10:28:28;;;;;;;5.03;1.87;;;21.50;1.00;;;;;;5027968;28;20589;-65
2023/07/30 10:30:57;;;;;;;3.83;1.77;;;22.50;22.70;;;;;;5025937;28;20228;-66
2023/07/30 10:33:45;;;;;;;8.63;2.40;;;23.30;99.90;;;;;;5026528;28;20285;-66
2023/07/30 10:36:13;;;;;;;6.07;1.80;;;22.80;1.00;;;;;;5027455;28;20679;-65
2023/07/30 10:38:43;;;;;;;6.17;2.30;;;22.20;1.00;;;;;;5023762;28;20222;-66
2023/07/30 10:41:16;;;;;;;4.20;2.03;;;21.70;75.80;;;;;;5030234;28;20196;-64
2023/07/30 10:43:49;;;;;;;4.03;1.70;;;21.50;99.90;;;;;;5029915;28;20255;-65
2023/07/30 10:46:19;;;;;;;4.63;1.90;;;21.70;99.90;;;;;;5030310;28;20251;-66
2023/07/30 10:48:49;;;;;;;3.50;1.70;;;22.50;1.00;;;;;;5030433;28;20626;-66
2023/07/30 10:51:20;;;;;;;6.23;1.90;;;22.90;10.10;;;;;;5030768;28;20232;-65
2023/07/30 10:53:50;;;;;;;3.90;1.60;;;23.00;99.90;;;;;;5010235;28;20233;-65
2023/07/30 10:56:24;;;;;;;7.10;1.80;;;23.70;1.00;;;;;;5026521;28;20205;-65
2023/07/30 10:58:54;;;;;;;3.33;1.47;;;23.90;1.00;;;;;;5026324;28;20636;-66
2023/07/30 11:01:25;;;;;;;2.70;1.63;;;23.70;1.00;;;;;;5025239;28;20244;-66
2023/07/30 11:03:54;;;;;;;4.80;1.87;;;23.30;1.00;;;;;;5027306;28;20320;-65
2023/07/30 11:06:23;;;;;;;6.23;1.93;;;22.80;1.00;;;;;;5024613;28;20212;-66
2023/07/30 11:08:52;;;;;;;5.27;1.70;;;22.30;99.90;;;;;;5027293;28;20217;-66
2023/07/30 11:11:24;;;;;;;5.17;2.20;;;21.80;99.90;;;;;;5017718;28;20231;-65
2023/07/30 11:13:53;;;;;;;3.57;1.90;;;21.80;1.00;;;;;;5006776;28;20203;-65
2023/07/30 11:16:21;;;;;;;7.63;2.17;;;22.10;50.00;;;;;;5027796;28;20624;-66
2023/07/30 11:18:50;;;;;;;3.80;1.87;;;22.90;99.90;;;;;;5025179;28;20220;-66
2023/07/30 11:21:19;;;;;;;3.23;1.53;;;23.60;99.90;;;;;;5020705;28;20233;-66
2023/07/30 11:23:48;;;;;;;4.77;1.80;;;24.20;99.90;;;;;;5027157;28;20637;-66
2023/07/30 11:26:18;;;;;;;3.77;1.70;;;24.60;1.00;;;;;;5026183;28;20761;-66
2023/07/30 11:28:48;;;;;;;4.67;1.80;;;24.70;85.20;;;;;;5028590;28;20251;-66
2023/07/30 11:31:20;;;;;;;2.97;1.40;;;24.90;76.70;;;;;;5027617;28;20236;-66
2023/07/30 11:33:51;;;;;;;3.80;1.38;;;25.50;99.90;;;;;;5018883;28;20219;-66
2023/07/30 11:36:22;;;;;;;4.33;2.03;;;25.40;1.00;;;;;;5023950;28;20320;-66
2023/07/30 11:38:52;;;;;;;3.77;1.60;;;25.00;1.00;;;;;;5027472;28;20210;-68
2023/07/30 11:41:23;;;;;;;3.40;1.30;;;25.30;99.90;;;;;;5026154;28;20272;-67
2023/07/30 11:43:53;;;;;;;2.97;1.50;;;25.50;1.00;;;;;;5024688;28;20276;-66
2023/07/30 11:46:22;;;;;;;6.23;1.40;;;25.50;1.00;;;;;;5026880;28;20862;-66
2023/07/30 11:48:52;;;;;;;5.25;1.95;;;25.50;1.00;;;;;;5028698;28;20361;-66
2023/07/30 11:51:22;;;;;;;4.20;1.60;;;25.50;1.00;;;;;;5024813;28;20230;-67
2023/07/30 11:53:52;;;;;;;4.37;1.70;;;25.60;1.00;;;;;;5008161;28;20316;-66
2023/07/30 11:56:23;;;;;;;2.30;1.35;;;25.90;1.00;;;;;;5022743;28;20206;-67
2023/07/30 11:58:57;;;;;;;4.87;1.30;;;26.10;1.00;;;;;;5023845;28;20243;-67
2023/07/30 12:01:27;;;;;;;5.10;1.70;;;25.80;1.00;;;;;;5028266;28;20222;-67
2023/07/30 12:03:56;;;;;;;3.83;1.67;;;25.60;1.00;;;;;;5023866;28;20589;-67
2023/07/30 12:06:25;;;;;;;5.70;1.70;;;25.20;77.20;;;;;;5008423;28;20308;-67
2023/07/30 12:08:54;;;;;;;3.60;1.53;;;25.20;99.90;;;;;;5022063;28;20214;-66
2023/07/30 12:11:22;;;;;;;5.13;1.63;;;25.30;1.00;;;;;;5027878;28;20186;-67
2023/07/30 12:13:52;;;;;;;3.37;1.80;;;25.00;1.00;;;;;;5029076;28;20289;-67
2023/07/30 12:16:20;;;;;;;3.87;1.93;;;24.60;99.90;;;;;;5022946;28;20699;-67
2023/07/30 12:18:49;;;;;;;2.50;1.70;;;24.20;8.80;;;;;;5029614;28;20348;-67
2023/07/30 12:21:17;;;;;;;1.57;1.40;;;24.00;99.90;;;;;;5023836;28;21536;-67
2023/07/30 12:23:47;;;;;;;6.73;1.90;;;23.80;99.90;;;;;;5025771;28;20317;-67
2023/07/30 12:26:16;;;;;;;4.13;1.53;;;23.90;99.90;;;;;;5025520;28;20196;-66
2023/07/30 12:28:44;;;;;;;6.30;1.70;;;24.00;1.00;;;;;;5020437;28;20207;-67
2023/07/30 12:31:14;;;;;;;2.70;1.33;;;23.70;1.00;;;;;;5025471;28;20688;-67
2023/07/30 12:33:44;;;;;;;5.73;2.10;;;23.60;99.90;;;;;;5013427;28;20222;-67
2023/07/30 12:36:13;;;;;;;2.97;1.80;;;23.80;1.00;;;;;;5025190;28;20314;-67
2023/07/30 12:38:41;;;;;;;1.37;1.20;;;23.70;99.90;;;;;;5035547;28;20220;-66
2023/07/30 12:41:13;;;;;;;3.67;1.70;;;23.80;1.00;;;;;;5027878;28;20203;-67
2023/07/30 12:43:41;;;;;;;3.27;1.67;;;23.80;1.00;;;;;;5025081;28;20236;-66
2023/07/30 12:46:09;;;;;;;7.90;1.83;;;23.50;1.00;;;;;;5023279;28;20225;-67
2023/07/30 12:48:39;;;;;;;7.37;2.00;;;23.60;1.00;;;;;;5024739;28;20632;-67
2023/07/30 12:51:07;;;;;;;4.00;1.47;;;23.90;1.00;;;;;;5019842;28;20307;-67
2023/07/30 12:53:35;;;;;;;3.60;1.77;;;24.00;99.90;;;;;;5025803;28;20229;-67